Time;durP1;ratioP1;P1;durP2;ratioP2;P2;SDS_P1;SDS_P2;PMS_P1;PMS_P2;Temp;Humidity;BMP_temperature;BMP_pressure;BME280_temperature;BME280_humidity;BME280_pressure;Samples;Min_cycle;Max_cycle;Signal;HPM_P1;HPM_P2
2022/07/15 00:00:55;;;;;;;2.93;2.40;;;17.60;49.70;;;;;;4199007;28;20206;-78
2022/07/15 00:02:55;;;;;;;5.77;2.80;;;17.50;50.50;;;;;;4198489;28;20526;-78
2022/07/15 00:04:56;;;;;;;4.60;2.90;;;17.40;50.90;;;;;;4198116;28;20199;-77
2022/07/15 00:06:56;;;;;;;2.80;2.20;;;17.40;50.90;;;;;;4200462;28;20548;-77
2022/07/15 00:08:57;;;;;;;4.07;2.30;;;17.40;51.10;;;;;;4200209;28;20196;-77
2022/07/15 00:10:58;;;;;;;4.57;2.40;;;17.40;51.60;;;;;;4199695;28;20172;-77
2022/07/15 00:13:00;;;;;;;3.80;2.40;;;17.40;51.10;;;;;;4201476;28;20685;-78
2022/07/15 00:15:01;;;;;;;4.90;2.73;;;17.30;51.80;;;;;;4201263;28;20206;-78
2022/07/15 00:17:02;;;;;;;4.47;2.37;;;17.20;51.70;;;;;;4202699;28;20211;-78
2022/07/15 00:19:02;;;;;;;3.73;2.27;;;17.10;52.50;;;;;;4217616;28;20191;-78
2022/07/15 00:21:03;;;;;;;3.33;2.10;;;17.10;52.60;;;;;;4220932;28;20203;-77
2022/07/15 00:23:05;;;;;;;2.50;2.20;;;17.00;53.00;;;;;;4221034;28;20204;-78
2022/07/15 00:25:06;;;;;;;3.23;2.57;;;16.90;53.40;;;;;;4222724;28;20198;-78
2022/07/15 00:27:07;;;;;;;2.93;2.47;;;16.90;53.70;;;;;;4223053;28;20183;-79
2022/07/15 00:29:07;;;;;;;4.77;2.17;;;16.80;53.50;;;;;;4216315;28;20235;-77
2022/07/15 00:31:08;;;;;;;4.33;2.47;;;16.80;53.80;;;;;;4213124;28;20186;-77
2022/07/15 00:33:09;;;;;;;3.80;2.63;;;16.60;54.30;;;;;;4214435;28;20253;-77
2022/07/15 00:35:10;;;;;;;6.43;2.50;;;16.50;54.70;;;;;;4216403;28;20195;-77
2022/07/15 00:37:11;;;;;;;5.57;2.40;;;16.40;55.30;;;;;;4214213;28;20246;-77
2022/07/15 00:39:11;;;;;;;5.63;2.30;;;16.40;55.70;;;;;;4213843;28;20175;-77
2022/07/15 00:41:12;;;;;;;4.40;2.40;;;16.40;55.90;;;;;;4212890;28;20246;-77
2022/07/15 00:43:16;;;;;;;5.60;2.60;;;16.30;56.20;;;;;;4203212;28;20213;-78
2022/07/15 00:45:20;;;;;;;4.13;2.60;;;16.30;56.10;;;;;;4196887;28;20184;-77
2022/07/15 00:47:20;;;;;;;4.27;2.30;;;16.30;56.40;;;;;;4196977;28;20833;-77
2022/07/15 00:49:21;;;;;;;3.00;2.40;;;16.20;56.60;;;;;;4196853;28;20175;-78
2022/07/15 00:51:21;;;;;;;3.80;2.00;;;16.20;56.30;;;;;;4196634;28;20202;-77
2022/07/15 00:53:22;;;;;;;4.00;2.40;;;16.00;56.80;;;;;;4197017;28;20214;-77
2022/07/15 00:55:23;;;;;;;2.27;2.07;;;15.90;57.40;;;;;;4196851;28;20195;-77
2022/07/15 00:57:26;;;;;;;3.00;2.33;;;15.90;57.20;;;;;;4197718;28;20177;-78
2022/07/15 00:59:31;;;;;;;4.07;2.63;;;15.80;57.00;;;;;;4197182;28;20171;-78
2022/07/15 01:01:34;;;;;;;2.73;2.13;;;15.80;57.30;;;;;;4197042;28;20265;-78
2022/07/15 01:03:35;;;;;;;5.40;2.20;;;15.70;57.50;;;;;;4197657;28;20183;-78
2022/07/15 01:05:37;;;;;;;3.73;2.20;;;15.70;57.50;;;;;;4198433;28;20219;-78
2022/07/15 01:07:40;;;;;;;3.00;2.37;;;15.60;57.70;;;;;;4197790;28;20180;-77
2022/07/15 01:09:42;;;;;;;3.13;2.40;;;15.50;58.00;;;;;;4198030;28;20179;-77
2022/07/15 01:11:42;;;;;;;4.17;2.30;;;15.50;58.30;;;;;;4179873;28;20687;-77
2022/07/15 01:13:43;;;;;;;3.13;2.40;;;15.40;58.40;;;;;;4197782;28;20258;-78
2022/07/15 01:15:44;;;;;;;2.60;2.20;;;15.30;58.60;;;;;;4200796;28;20240;-78
2022/07/15 01:17:45;;;;;;;2.50;2.30;;;15.20;59.30;;;;;;4201284;28;20654;-79
2022/07/15 01:19:46;;;;;;;3.80;2.77;;;15.20;59.30;;;;;;4201928;28;20172;-78
2022/07/15 01:21:46;;;;;;;3.23;2.43;;;15.20;59.10;;;;;;4201049;28;20203;-78
2022/07/15 01:23:47;;;;;;;3.20;2.37;;;15.10;58.90;;;;;;4201579;28;20207;-77
2022/07/15 01:25:48;;;;;;;2.67;2.40;;;15.10;59.10;;;;;;4200973;28;20195;-77
2022/07/15 01:27:48;;;;;;;2.17;1.97;;;15.10;59.40;;;;;;4201417;28;20209;-78
2022/07/15 01:29:49;;;;;;;3.80;2.47;;;15.00;59.40;;;;;;4201433;28;20171;-78
2022/07/15 01:31:50;;;;;;;3.97;2.37;;;15.00;59.80;;;;;;4201243;28;20179;-78
2022/07/15 01:33:53;;;;;;;3.87;2.10;;;14.90;59.70;;;;;;4201374;28;20206;-77
2022/07/15 01:35:55;;;;;;;3.93;2.10;;;15.00;59.90;;;;;;4202200;28;20654;-78
2022/07/15 01:37:55;;;;;;;4.87;2.30;;;15.00;59.90;;;;;;4201302;28;20190;-77
2022/07/15 01:39:56;;;;;;;3.40;2.40;;;14.90;60.50;;;;;;4201656;28;20683;-78
2022/07/15 01:41:56;;;;;;;3.47;2.30;;;14.90;60.30;;;;;;4200953;28;20664;-77
2022/07/15 01:43:57;;;;;;;5.83;2.40;;;14.80;60.20;;;;;;4201981;28;20644;-78
2022/07/15 01:45:58;;;;;;;3.90;2.13;;;14.80;60.80;;;;;;4201035;28;20180;-77
2022/07/15 01:47:58;;;;;;;4.43;2.30;;;14.70;60.70;;;;;;4201112;28;20266;-77
2022/07/15 01:49:59;;;;;;;2.40;1.97;;;14.70;60.90;;;;;;4200553;28;20557;-77
2022/07/15 01:52:03;;;;;;;2.60;2.17;;;14.60;61.20;;;;;;4199856;28;20214;-78
2022/07/15 01:54:03;;;;;;;2.50;2.30;;;14.60;61.20;;;;;;4199089;28;20213;-77
2022/07/15 01:56:04;;;;;;;4.07;2.37;;;14.50;61.70;;;;;;4200350;28;20680;-77
2022/07/15 01:58:05;;;;;;;7.43;2.77;;;14.40;61.70;;;;;;4198908;28;20666;-77
2022/07/15 02:00:07;;;;;;;3.03;2.20;;;14.40;63.10;;;;;;4200306;28;20197;-77
2022/07/15 02:02:08;;;;;;;2.53;2.33;;;14.40;62.20;;;;;;4198855;28;20287;-77
2022/07/15 02:04:09;;;;;;;2.83;2.13;;;14.30;62.30;;;;;;4199567;28;20211;-77
2022/07/15 02:06:10;;;;;;;5.00;2.60;;;14.40;62.10;;;;;;4199834;28;20222;-77
2022/07/15 02:08:10;;;;;;;2.80;2.30;;;14.40;62.00;;;;;;4199344;28;20176;-78
2022/07/15 02:10:11;;;;;;;3.33;2.40;;;14.40;62.00;;;;;;4198981;28;20176;-77
2022/07/15 02:12:11;;;;;;;2.87;2.03;;;14.50;62.30;;;;;;4198808;28;20262;-78
2022/07/15 02:14:12;;;;;;;2.97;2.23;;;14.50;62.50;;;;;;4199614;28;20215;-77
2022/07/15 02:16:12;;;;;;;2.33;2.07;;;14.50;62.20;;;;;;4198072;28;20230;-77
2022/07/15 02:18:13;;;;;;;4.03;2.27;;;14.50;62.30;;;;;;4199272;28;20604;-77
2022/07/15 02:20:13;;;;;;;3.50;2.10;;;14.60;61.80;;;;;;4195906;28;20183;-77
2022/07/15 02:22:14;;;;;;;2.93;2.20;;;14.50;61.90;;;;;;4209686;28;20187;-77
2022/07/15 02:24:15;;;;;;;4.20;2.70;;;14.50;61.80;;;;;;4215602;28;20247;-77
2022/07/15 02:26:17;;;;;;;2.60;2.00;;;14.50;61.90;;;;;;4214121;28;20207;-77
2022/07/15 02:28:17;;;;;;;2.73;2.37;;;14.50;61.70;;;;;;4215696;28;20175;-77
2022/07/15 02:30:18;;;;;;;2.90;2.47;;;14.50;61.70;;;;;;4215384;28;20316;-77
2022/07/15 02:32:19;;;;;;;4.07;2.30;;;14.40;62.10;;;;;;4214918;28;20182;-77
2022/07/15 02:34:19;;;;;;;3.50;2.30;;;14.40;62.10;;;;;;4217327;28;20274;-77
2022/07/15 02:36:20;;;;;;;2.57;2.10;;;14.40;62.40;;;;;;4212811;28;20732;-77
2022/07/15 02:38:22;;;;;;;5.37;2.33;;;14.40;62.10;;;;;;4198657;28;20175;-77
2022/07/15 02:40:22;;;;;;;5.33;2.43;;;14.30;62.60;;;;;;4204952;28;20278;-77
2022/07/15 02:42:23;;;;;;;4.67;2.30;;;14.40;62.60;;;;;;4214562;28;20179;-77
2022/07/15 02:44:24;;;;;;;2.67;2.20;;;14.40;62.40;;;;;;4223682;28;20207;-77
2022/07/15 02:46:24;;;;;;;2.33;2.13;;;14.40;62.30;;;;;;4223693;28;20175;-77
2022/07/15 02:48:25;;;;;;;17.57;5.83;;;14.40;62.60;;;;;;4223530;28;20171;-78
2022/07/15 02:50:25;;;;;;;12.87;4.90;;;14.30;63.50;;;;;;4221872;28;20262;-78
2022/07/15 02:52:26;;;;;;;13.27;4.87;;;14.30;63.90;;;;;;4221146;28;20189;-77
2022/07/15 02:54:27;;;;;;;8.43;4.30;;;14.30;64.00;;;;;;4221160;28;20309;-77
2022/07/15 02:56:27;;;;;;;11.23;4.13;;;14.30;64.00;;;;;;4216198;28;20171;-78
2022/07/15 02:58:30;;;;;;;7.40;4.00;;;14.30;63.90;;;;;;4214636;28;20711;-77
2022/07/15 03:00:32;;;;;;;9.00;3.80;;;14.30;64.80;;;;;;4212902;28;20637;-77
2022/07/15 03:02:33;;;;;;;7.03;3.40;;;14.20;64.90;;;;;;4213478;28;20220;-77
2022/07/15 03:04:34;;;;;;;6.03;2.90;;;14.20;64.90;;;;;;4214253;28;20692;-77
2022/07/15 03:06:35;;;;;;;3.87;2.70;;;14.20;64.60;;;;;;4214439;28;20179;-77
2022/07/15 03:08:36;;;;;;;5.50;2.70;;;14.20;64.50;;;;;;4214225;28;20178;-77
2022/07/15 03:10:37;;;;;;;4.73;2.77;;;14.20;64.40;;;;;;4214360;28;20585;-77
2022/07/15 03:12:37;;;;;;;3.73;2.60;;;14.20;64.20;;;;;;4213551;28;20193;-77
2022/07/15 03:14:38;;;;;;;3.73;2.47;;;14.20;64.20;;;;;;4213985;28;20210;-77
2022/07/15 03:16:38;;;;;;;3.63;2.60;;;14.20;64.30;;;;;;4214232;28;20262;-77
2022/07/15 03:18:39;;;;;;;4.00;2.50;;;14.10;64.20;;;;;;4214163;28;20182;-77
2022/07/15 03:20:39;;;;;;;5.63;2.50;;;14.10;64.30;;;;;;4216177;28;20194;-77
2022/07/15 03:22:40;;;;;;;2.63;2.37;;;14.10;64.20;;;;;;4218077;28;20574;-77
2022/07/15 03:24:41;;;;;;;2.80;2.27;;;14.00;64.30;;;;;;4218320;28;20572;-76
2022/07/15 03:26:43;;;;;;;3.20;2.50;;;14.00;64.60;;;;;;4217953;28;20638;-77
2022/07/15 03:28:44;;;;;;;2.77;2.40;;;13.90;64.90;;;;;;4218603;28;20179;-77
2022/07/15 03:30:44;;;;;;;4.60;2.43;;;13.80;65.40;;;;;;4217632;28;20179;-78
2022/07/15 03:32:45;;;;;;;4.67;2.53;;;13.70;66.00;;;;;;4216597;28;20853;-77
2022/07/15 03:34:46;;;;;;;5.10;2.50;;;13.70;66.30;;;;;;4217870;28;20292;-77
2022/07/15 03:36:47;;;;;;;5.10;2.50;;;13.70;66.20;;;;;;4218117;28;20179;-77
2022/07/15 03:38:49;;;;;;;6.30;2.73;;;13.70;66.20;;;;;;4217837;28;20349;-77
2022/07/15 03:40:49;;;;;;;5.30;2.47;;;13.70;66.40;;;;;;4217315;28;20168;-76
2022/07/15 03:42:50;;;;;;;5.70;2.40;;;13.70;66.20;;;;;;4217480;28;20182;-77
2022/07/15 03:44:50;;;;;;;3.80;2.63;;;13.60;66.70;;;;;;4216674;28;20601;-77
2022/07/15 03:46:51;;;;;;;3.30;2.53;;;13.60;67.10;;;;;;4216941;28;20669;-77
2022/07/15 03:48:52;;;;;;;3.33;2.43;;;13.60;67.50;;;;;;4217210;28;20175;-78
2022/07/15 03:50:53;;;;;;;3.97;2.30;;;13.60;67.60;;;;;;4216228;28;20175;-78
2022/07/15 03:52:53;;;;;;;2.73;2.33;;;13.50;67.50;;;;;;4216582;28;20652;-77
2022/07/15 03:54:54;;;;;;;6.27;2.70;;;13.50;67.30;;;;;;4215891;28;20684;-77
2022/07/15 03:56:55;;;;;;;2.93;2.63;;;13.50;67.80;;;;;;4216582;28;20171;-77
2022/07/15 03:58:55;;;;;;;4.43;2.80;;;13.50;68.20;;;;;;4212652;28;20187;-77
2022/07/15 04:00:57;;;;;;;4.23;2.90;;;13.40;68.80;;;;;;4213287;28;20660;-77
2022/07/15 04:02:58;;;;;;;7.47;2.90;;;13.40;69.20;;;;;;4213833;28;20181;-76
2022/07/15 04:04:58;;;;;;;3.70;2.60;;;13.40;69.50;;;;;;4214280;28;20285;-78
2022/07/15 04:06:59;;;;;;;5.47;3.00;;;13.40;69.20;;;;;;4217157;28;20591;-77
2022/07/15 04:08:59;;;;;;;3.07;2.63;;;13.40;69.10;;;;;;4217207;28;20183;-77
2022/07/15 04:11:00;;;;;;;3.30;2.70;;;13.40;69.40;;;;;;4215230;28;20283;-77
2022/07/15 04:13:01;;;;;;;4.00;2.50;;;13.30;69.40;;;;;;4216923;28;20186;-77
2022/07/15 04:15:01;;;;;;;3.77;2.50;;;13.20;69.50;;;;;;4216610;28;20244;-77
2022/07/15 04:17:02;;;;;;;3.57;2.43;;;13.30;69.30;;;;;;4216164;28;20175;-76
2022/07/15 04:19:04;;;;;;;2.83;2.50;;;13.30;69.10;;;;;;4216624;28;20662;-76
2022/07/15 04:21:04;;;;;;;3.47;2.33;;;13.30;69.10;;;;;;4215991;28;20207;-76
2022/07/15 04:23:05;;;;;;;4.83;2.50;;;13.30;68.90;;;;;;4216394;28;20657;-76
2022/07/15 04:25:07;;;;;;;3.10;2.60;;;13.30;69.60;;;;;;4216552;28;20218;-76
2022/07/15 04:27:08;;;;;;;3.63;2.63;;;13.30;69.80;;;;;;4216610;28;20178;-76
2022/07/15 04:29:08;;;;;;;3.10;2.80;;;13.30;69.80;;;;;;4216440;28;20183;-76
2022/07/15 04:31:09;;;;;;;4.40;2.60;;;13.30;69.80;;;;;;4215897;28;20194;-77
2022/07/15 04:33:09;;;;;;;2.80;2.27;;;13.20;70.30;;;;;;4216644;28;20240;-76
2022/07/15 04:35:10;;;;;;;4.10;2.80;;;13.10;70.50;;;;;;4216313;28;20202;-75
2022/07/15 04:37:10;;;;;;;5.27;2.70;;;13.20;71.00;;;;;;4215702;28;20198;-76
2022/07/15 04:39:11;;;;;;;3.33;2.77;;;13.20;71.00;;;;;;4216643;28;20193;-76
2022/07/15 04:41:12;;;;;;;3.90;2.30;;;13.10;71.00;;;;;;4215647;28;20211;-76
2022/07/15 04:43:13;;;;;;;2.97;2.60;;;13.10;70.80;;;;;;4216786;28;20183;-76
2022/07/15 04:45:13;;;;;;;3.63;2.73;;;13.20;70.70;;;;;;4211790;28;20349;-74
2022/07/15 04:47:15;;;;;;;3.47;2.33;;;13.20;70.40;;;;;;4199879;28;20175;-76
2022/07/15 04:51:35;;;;;;;4.37;2.30;;;13.30;70.30;;;;;;4199631;28;20190;-76
2022/07/15 04:53:35;;;;;;;6.17;2.40;;;13.30;70.30;;;;;;4199851;28;20203;-76
2022/07/15 04:55:36;;;;;;;4.30;2.70;;;13.30;70.10;;;;;;4199556;28;20262;-75
2022/07/15 04:57:36;;;;;;;2.90;2.60;;;13.30;70.50;;;;;;4199657;28;20700;-76
2022/07/15 04:59:38;;;;;;;2.87;2.60;;;13.20;71.60;;;;;;4199950;28;20249;-76
2022/07/15 05:01:38;;;;;;;3.30;2.73;;;13.20;71.30;;;;;;4199560;28;20552;-76
2022/07/15 05:03:39;;;;;;;5.67;2.60;;;13.30;71.20;;;;;;4199775;28;20182;-76
2022/07/15 05:05:39;;;;;;;2.73;2.50;;;13.40;70.90;;;;;;4199617;28;20176;-76
2022/07/15 05:07:40;;;;;;;3.23;2.93;;;13.40;71.10;;;;;;4199794;28;20179;-76
2022/07/15 05:09:41;;;;;;;3.90;2.93;;;13.40;70.20;;;;;;4197262;28;20179;-76
2022/07/15 05:11:41;;;;;;;3.07;2.33;;;13.40;70.30;;;;;;4196754;28;20325;-74
2022/07/15 05:13:42;;;;;;;5.77;2.43;;;13.40;70.20;;;;;;4196868;28;20249;-74
2022/07/15 05:15:42;;;;;;;5.53;2.80;;;13.40;70.70;;;;;;4195487;28;20207;-75
2022/07/15 05:17:43;;;;;;;4.60;2.60;;;13.50;71.00;;;;;;4197127;28;20625;-75
2022/07/15 05:19:43;;;;;;;4.77;2.60;;;13.60;70.60;;;;;;4199614;28;20218;-75
2022/07/15 05:21:44;;;;;;;2.57;2.37;;;13.60;70.40;;;;;;4195089;28;20642;-75
2022/07/15 05:23:44;;;;;;;7.40;2.40;;;13.60;69.80;;;;;;4195675;28;20258;-76
2022/07/15 05:25:45;;;;;;;5.53;2.30;;;13.70;71.00;;;;;;4195975;28;20583;-75
2022/07/15 05:27:46;;;;;;;3.80;2.47;;;13.80;69.50;;;;;;4195612;28;20179;-75
2022/07/15 05:29:46;;;;;;;4.03;2.67;;;13.80;69.40;;;;;;4195644;28;20183;-75
2022/07/15 05:31:48;;;;;;;3.73;2.60;;;13.80;69.30;;;;;;4195123;28;20180;-76
2022/07/15 05:33:49;;;;;;;5.47;2.50;;;13.90;69.40;;;;;;4195581;28;20835;-75
2022/07/15 05:35:50;;;;;;;3.30;2.30;;;13.90;69.00;;;;;;4195868;28;20187;-75
2022/07/15 05:37:50;;;;;;;2.77;2.50;;;13.90;69.00;;;;;;4194151;28;20184;-75
2022/07/15 05:39:53;;;;;;;4.77;2.73;;;14.00;69.00;;;;;;4195421;28;20175;-75
2022/07/15 05:41:54;;;;;;;3.73;2.60;;;14.10;68.70;;;;;;4194852;28;20264;-75
2022/07/15 05:43:55;;;;;;;4.90;2.67;;;14.10;69.20;;;;;;4195240;28;20183;-75
2022/07/15 05:45:55;;;;;;;4.70;2.57;;;14.20;69.20;;;;;;4195555;28;20545;-75
2022/07/15 05:47:56;;;;;;;4.73;2.43;;;14.20;69.10;;;;;;4195533;28;20267;-75
2022/07/15 05:49:56;;;;;;;4.33;2.83;;;14.30;69.30;;;;;;4195268;28;20184;-75
2022/07/15 05:51:57;;;;;;;6.67;3.40;;;14.30;69.60;;;;;;4194693;28;20195;-75
2022/07/15 05:53:57;;;;;;;4.40;2.90;;;14.30;68.40;;;;;;4195113;28;20690;-75
2022/07/15 05:55:59;;;;;;;3.50;2.87;;;14.40;69.20;;;;;;4195433;28;20187;-75
2022/07/15 05:57:59;;;;;;;5.37;3.20;;;14.40;68.70;;;;;;4193942;28;20218;-75
2022/07/15 06:00:00;;;;;;;4.43;2.80;;;14.50;69.00;;;;;;4195067;28;20179;-75
2022/07/15 06:02:00;;;;;;;4.70;2.57;;;14.60;68.70;;;;;;4196224;28;20182;-75
2022/07/15 06:04:01;;;;;;;3.43;2.60;;;14.60;68.80;;;;;;4198019;28;20203;-75
2022/07/15 06:06:03;;;;;;;5.63;3.10;;;14.70;68.60;;;;;;4198525;28;20179;-75
2022/07/15 06:08:04;;;;;;;5.33;2.80;;;14.80;68.30;;;;;;4198069;28;20262;-75
2022/07/15 06:10:06;;;;;;;4.80;3.17;;;14.80;68.10;;;;;;4212738;28;20202;-75
2022/07/15 06:12:06;;;;;;;3.80;2.70;;;14.90;68.10;;;;;;4214228;28;20195;-75
2022/07/15 06:14:07;;;;;;;4.83;2.70;;;15.00;68.40;;;;;;4214770;28;20223;-74
2022/07/15 06:16:08;;;;;;;3.80;3.00;;;15.00;68.50;;;;;;4214721;28;20181;-75
2022/07/15 06:18:09;;;;;;;5.70;2.60;;;15.00;67.90;;;;;;4214839;28;20220;-75
2022/07/15 06:20:11;;;;;;;4.70;2.67;;;15.10;68.10;;;;;;4214661;28;20186;-75
2022/07/15 06:22:11;;;;;;;4.47;2.93;;;15.20;67.50;;;;;;4214093;28;20268;-74
2022/07/15 06:24:12;;;;;;;3.97;2.70;;;15.30;67.20;;;;;;4213130;28;20202;-75
2022/07/15 06:26:13;;;;;;;3.93;2.30;;;15.30;66.80;;;;;;4214535;28;20236;-75
2022/07/15 06:28:13;;;;;;;3.10;2.50;;;15.40;66.70;;;;;;4214607;28;20182;-75
2022/07/15 06:30:14;;;;;;;3.77;2.47;;;15.50;65.50;;;;;;4214527;28;20236;-75
2022/07/15 06:32:15;;;;;;;4.13;2.70;;;15.50;65.70;;;;;;4214146;28;20241;-75
2022/07/15 06:34:15;;;;;;;4.23;2.27;;;15.50;65.70;;;;;;4214875;28;20276;-74
2022/07/15 06:36:16;;;;;;;4.37;2.60;;;15.70;63.40;;;;;;4210503;28;20618;-75
2022/07/15 06:38:16;;;;;;;2.97;1.87;;;15.90;62.40;;;;;;4196430;28;20191;-75
2022/07/15 06:40:18;;;;;;;5.97;3.07;;;16.00;61.80;;;;;;4197769;28;20267;-74
2022/07/15 06:42:18;;;;;;;2.33;2.10;;;16.10;62.10;;;;;;4197032;28;20183;-74
2022/07/15 06:44:19;;;;;;;3.13;2.07;;;16.10;59.60;;;;;;4197520;28;20402;-75
2022/07/15 06:46:20;;;;;;;6.90;2.20;;;16.40;58.10;;;;;;4199141;28;20548;-74
2022/07/15 06:48:20;;;;;;;2.70;2.30;;;16.40;58.60;;;;;;4212591;28;20190;-75
2022/07/15 06:50:24;;;;;;;3.87;2.40;;;16.60;58.90;;;;;;4213789;28;20186;-76
2022/07/15 06:52:24;;;;;;;5.07;2.00;;;16.70;56.20;;;;;;4213202;28;20553;-75
2022/07/15 06:54:25;;;;;;;5.10;2.13;;;16.90;56.20;;;;;;4213635;28;20207;-75
2022/07/15 06:56:25;;;;;;;3.83;1.93;;;17.00;55.90;;;;;;4213792;28;20266;-75
2022/07/15 06:58:26;;;;;;;2.97;2.50;;;17.10;54.80;;;;;;4213850;28;20231;-75
2022/07/15 07:00:29;;;;;;;3.87;2.00;;;17.30;53.60;;;;;;4213787;28;20183;-75
2022/07/15 07:02:32;;;;;;;2.90;2.30;;;17.40;54.20;;;;;;4211877;28;20178;-74
2022/07/15 07:04:33;;;;;;;2.37;2.17;;;17.60;54.10;;;;;;4211377;28;20191;-75
2022/07/15 07:06:33;;;;;;;5.17;2.53;;;17.60;53.50;;;;;;4213506;28;20937;-75
2022/07/15 07:08:34;;;;;;;2.70;2.07;;;17.70;54.90;;;;;;4213774;28;20190;-75
2022/07/15 07:10:34;;;;;;;3.97;2.20;;;17.90;52.90;;;;;;4213884;28;20633;-75
2022/07/15 07:12:36;;;;;;;4.30;2.30;;;18.10;52.00;;;;;;4212883;28;20256;-76
2022/07/15 07:14:37;;;;;;;4.73;2.30;;;18.20;50.90;;;;;;4213777;28;20214;-75
2022/07/15 07:16:38;;;;;;;6.53;1.90;;;18.20;49.20;;;;;;4214001;28;20581;-74
2022/07/15 07:18:38;;;;;;;6.37;2.53;;;18.30;49.70;;;;;;4213860;28;20171;-75
2022/07/15 07:20:43;;;;;;;3.50;2.33;;;18.40;49.00;;;;;;4213618;28;20281;-75
2022/07/15 07:22:43;;;;;;;4.13;2.13;;;18.50;49.20;;;;;;4213664;28;20171;-76
2022/07/15 07:24:44;;;;;;;5.53;2.20;;;18.60;48.90;;;;;;4213647;28;20233;-75
2022/07/15 07:26:45;;;;;;;3.27;2.10;;;18.70;50.10;;;;;;4213757;28;20175;-75
2022/07/15 07:28:48;;;;;;;4.17;2.20;;;18.90;48.90;;;;;;4213631;28;20250;-75
2022/07/15 07:30:50;;;;;;;2.70;2.07;;;18.90;46.20;;;;;;4212946;28;20649;-75
2022/07/15 07:32:52;;;;;;;2.87;2.20;;;18.90;46.10;;;;;;4213683;28;20259;-74
2022/07/15 07:34:52;;;;;;;2.33;2.13;;;19.10;48.50;;;;;;4213423;28;20257;-75
2022/07/15 07:36:53;;;;;;;2.83;2.20;;;19.30;45.80;;;;;;4213541;28;20179;-75
2022/07/15 07:38:54;;;;;;;4.37;1.87;;;19.20;44.90;;;;;;4213537;28;20236;-75
2022/07/15 07:40:55;;;;;;;2.23;2.03;;;19.10;45.90;;;;;;4212823;28;20174;-74
2022/07/15 07:42:56;;;;;;;4.23;2.03;;;19.30;45.00;;;;;;4213485;28;20254;-75
2022/07/15 07:44:58;;;;;;;4.27;2.27;;;19.40;44.90;;;;;;4213259;28;20195;-75
2022/07/15 07:46:59;;;;;;;2.80;2.03;;;19.70;47.50;;;;;;4212151;28;20599;-75
2022/07/15 07:48:59;;;;;;;3.03;1.87;;;19.70;45.20;;;;;;4213706;28;20187;-74
2022/07/15 07:51:00;;;;;;;2.73;1.90;;;19.70;46.20;;;;;;4212752;28;20174;-75
2022/07/15 07:53:01;;;;;;;3.07;2.60;;;19.90;45.90;;;;;;4212921;28;20182;-75
2022/07/15 07:55:01;;;;;;;4.17;2.40;;;19.80;43.00;;;;;;4212387;28;20697;-73
2022/07/15 07:57:03;;;;;;;4.10;2.10;;;20.00;44.30;;;;;;4213297;28;20185;-74
2022/07/15 07:59:03;;;;;;;2.37;2.13;;;20.20;44.10;;;;;;4213351;28;20249;-73
2022/07/15 08:01:04;;;;;;;3.27;2.40;;;20.10;44.00;;;;;;4212677;28;20210;-75
2022/07/15 08:03:04;;;;;;;4.27;2.50;;;20.30;43.60;;;;;;4213110;28;20185;-74
2022/07/15 08:05:05;;;;;;;2.40;2.00;;;20.30;42.30;;;;;;4212810;28;20218;-73
2022/07/15 08:07:07;;;;;;;3.00;2.53;;;20.00;42.40;;;;;;4213237;28;20257;-73
2022/07/15 08:09:07;;;;;;;3.43;2.40;;;20.00;42.70;;;;;;4212944;28;20175;-73
2022/07/15 08:11:08;;;;;;;3.90;2.50;;;20.10;42.40;;;;;;4212532;28;20179;-74
2022/07/15 08:13:08;;;;;;;5.70;2.20;;;20.20;42.00;;;;;;4213021;28;20198;-74
2022/07/15 08:15:11;;;;;;;2.97;2.27;;;20.50;41.80;;;;;;4212894;28;20713;-75
2022/07/15 08:17:11;;;;;;;4.17;2.23;;;20.70;41.20;;;;;;4213221;28;20175;-74
2022/07/15 08:19:16;;;;;;;5.17;4.00;;;21.10;40.20;;;;;;4213065;28;20179;-73
2022/07/15 08:21:16;;;;;;;3.20;2.63;;;21.20;39.70;;;;;;4212328;28;20178;-73
2022/07/15 08:23:20;;;;;;;4.57;2.20;;;21.20;41.00;;;;;;4212919;28;20186;-74
2022/07/15 08:25:21;;;;;;;3.10;2.50;;;21.20;40.90;;;;;;4212476;28;20190;-74
2022/07/15 08:27:22;;;;;;;3.33;2.50;;;21.20;41.10;;;;;;4212669;28;20733;-75
2022/07/15 08:29:22;;;;;;;4.33;2.80;;;21.20;40.00;;;;;;4196972;28;20180;-72
2022/07/15 08:31:23;;;;;;;3.80;2.40;;;21.20;40.40;;;;;;4204380;28;20187;-74
2022/07/15 08:33:23;;;;;;;4.03;2.30;;;21.50;40.00;;;;;;4207449;28;20182;-73
2022/07/15 08:35:26;;;;;;;2.73;2.53;;;21.80;39.40;;;;;;4209000;28;20195;-71
2022/07/15 08:37:26;;;;;;;5.00;2.33;;;22.00;38.30;;;;;;4209032;28;21771;-68
2022/07/15 08:39:27;;;;;;;4.27;2.70;;;22.00;38.10;;;;;;4209191;28;20163;-72
2022/07/15 08:41:28;;;;;;;5.63;2.57;;;22.00;38.00;;;;;;4208433;28;20177;-68
2022/07/15 08:43:29;;;;;;;5.87;2.93;;;22.10;38.50;;;;;;4207657;28;20273;-69
2022/07/15 08:45:29;;;;;;;5.50;2.50;;;22.30;37.40;;;;;;4207860;28;20550;-69
2022/07/15 08:47:31;;;;;;;4.90;2.80;;;22.40;37.00;;;;;;4208548;28;20209;-72
2022/07/15 08:49:34;;;;;;;4.27;2.60;;;22.50;36.50;;;;;;4208637;28;20179;-72
2022/07/15 08:51:42;;;;;;;4.97;4.00;;;22.30;38.00;;;;;;4207350;28;20171;-72
2022/07/15 08:53:43;;;;;;;9.73;3.87;;;22.60;40.00;;;;;;4209696;28;20604;-72
2022/07/15 08:55:46;;;;;;;3.27;2.33;;;22.90;37.10;;;;;;4208521;28;20167;-71
2022/07/15 08:57:48;;;;;;;4.40;3.40;;;23.10;36.10;;;;;;4208162;28;20179;-72
2022/07/15 08:59:48;;;;;;;8.57;7.67;;;23.30;35.40;;;;;;4208670;28;20171;-71
2022/07/15 09:01:49;;;;;;;3.47;2.83;;;23.50;35.40;;;;;;4207956;28;20182;-69
2022/07/15 09:03:49;;;;;;;12.03;11.27;;;23.10;35.30;;;;;;4209158;28;20193;-72
2022/07/15 09:05:50;;;;;;;5.67;5.17;;;23.00;36.10;;;;;;4207935;28;20189;-72
2022/07/15 09:08:06;;;;;;;4.23;2.60;;;22.60;36.00;;;;;;4209439;28;20198;-73
2022/07/15 09:10:06;;;;;;;5.30;2.80;;;22.40;37.00;;;;;;4208803;28;20169;-71
2022/07/15 09:12:09;;;;;;;7.43;6.83;;;22.70;36.80;;;;;;4207323;28;20628;-71
2022/07/15 09:14:14;;;;;;;8.90;8.30;;;23.00;36.40;;;;;;4207727;28;20701;-71
2022/07/15 09:16:21;;;;;;;2.97;2.73;;;23.20;36.30;;;;;;4208794;28;20186;-72
2022/07/15 09:18:28;;;;;;;7.63;2.70;;;23.40;34.50;;;;;;4207992;28;20675;-72
2022/07/15 09:20:29;;;;;;;3.67;2.60;;;23.60;34.70;;;;;;4208929;28;20219;-72
2022/07/15 09:22:33;;;;;;;4.97;2.67;;;23.60;37.30;;;;;;4207471;28;20168;-71
2022/07/15 09:24:33;;;;;;;4.63;3.03;;;23.90;35.70;;;;;;4208077;28;20206;-72
2022/07/15 09:26:36;;;;;;;6.43;4.97;;;24.20;35.00;;;;;;4206544;28;20186;-72
2022/07/15 09:28:40;;;;;;;7.90;3.90;;;24.30;33.80;;;;;;4209169;28;20179;-72
2022/07/15 09:37:58;;;;;;;5.90;5.30;;;23.80;33.20;;;;;;4211687;28;20653;-71
2022/07/15 09:40:00;;;;;;;15.83;14.93;;;23.40;34.80;;;;;;4211188;28;20193;-71
2022/07/15 09:42:06;;;;;;;4.10;3.80;;;23.20;35.00;;;;;;4209306;28;20750;-71
2022/07/15 09:44:11;;;;;;;4.47;3.23;;;22.90;35.80;;;;;;4212027;28;20203;-72
2022/07/15 09:46:13;;;;;;;5.93;3.30;;;23.40;35.50;;;;;;4210397;28;20649;-73
2022/07/15 09:48:14;;;;;;;6.67;6.07;;;23.70;35.30;;;;;;4211337;28;20183;-73
2022/07/15 09:50:31;;;;;;;7.47;6.77;;;24.10;33.60;;;;;;4213613;28;20197;-73
2022/07/15 09:52:45;;;;;;;5.63;3.63;;;24.40;35.20;;;;;;4214190;28;20217;-75
2022/07/15 09:54:48;;;;;;;10.93;10.13;;;24.60;33.00;;;;;;4214821;28;20222;-74
2022/07/15 09:56:49;;;;;;;16.30;15.30;;;24.20;32.40;;;;;;4214655;28;20921;-74
2022/07/15 09:58:51;;;;;;;5.87;3.20;;;24.10;33.30;;;;;;4213832;28;20681;-74
2022/07/15 10:00:52;;;;;;;3.43;2.70;;;23.60;34.20;;;;;;4213423;28;20220;-74
2022/07/15 10:02:54;;;;;;;5.27;2.73;;;23.50;35.20;;;;;;4215265;28;20171;-73
2022/07/15 10:04:55;;;;;;;3.37;3.07;;;23.40;34.40;;;;;;4214445;28;20206;-73
2022/07/15 10:06:59;;;;;;;10.83;10.10;;;23.90;33.50;;;;;;4215529;28;20174;-74
2022/07/15 10:09:01;;;;;;;4.67;3.40;;;23.80;32.80;;;;;;4215711;28;20179;-73
2022/07/15 10:11:08;;;;;;;5.07;3.07;;;23.40;33.40;;;;;;4212541;28;20768;-74
2022/07/15 10:13:21;;;;;;;3.20;2.97;;;22.90;35.70;;;;;;4214741;28;20225;-74
2022/07/15 10:15:39;;;;;;;5.87;3.50;;;23.50;34.20;;;;;;4210963;28;20642;-76
2022/07/15 10:18:05;;;;;;;3.67;3.37;;;23.80;33.60;;;;;;4212515;28;20677;-78
2022/07/15 10:20:20;;;;;;;4.10;2.57;;;24.30;34.80;;;;;;4222809;28;20178;-77
2022/07/15 10:22:59;;;;;;;4.57;4.17;;;24.90;33.90;;;;;;4220157;28;20179;-77
2022/07/15 10:25:11;;;;;;;3.97;3.67;;;24.80;32.20;;;;;;4222119;28;20190;-78
2022/07/15 10:27:34;;;;;;;7.83;2.70;;;24.70;31.90;;;;;;4210250;28;20251;-73
2022/07/15 10:29:35;;;;;;;2.57;2.37;;;25.50;31.30;;;;;;4209007;28;20179;-74
2022/07/15 10:31:38;;;;;;;5.60;4.47;;;26.10;30.30;;;;;;4210384;28;20282;-71
2022/07/15 10:33:39;;;;;;;32.93;31.23;;;26.60;29.00;;;;;;4210382;28;20278;-70
2022/07/15 10:35:45;;;;;;;8.23;7.70;;;26.40;28.20;;;;;;4209589;28;20215;-70
2022/07/15 10:38:20;;;;;;;4.07;2.80;;;25.50;29.10;;;;;;4210679;28;20181;-70
2022/07/15 10:40:21;;;;;;;3.10;2.80;;;25.00;31.00;;;;;;4210314;28;20182;-74
2022/07/15 10:42:22;;;;;;;3.63;2.80;;;24.70;31.00;;;;;;4207541;28;20553;-74